createdAt,value
2018-10-01T18:41:14.192Z,926.18
2018-10-01T18:41:26.702Z,925.43
2018-10-01T18:41:39.291Z,925.29
2018-10-01T18:41:52.092Z,925.34
2018-10-01T18:42:05.855Z,925.34
2018-10-01T18:42:19.147Z,925.25
2018-10-01T18:42:32.839Z,925.34
2018-10-01T18:42:45.259Z,925.37
2018-10-01T18:42:56.890Z,925.45
2018-10-01T18:43:09.803Z,925.42
2018-10-01T18:43:22.110Z,925.47
2018-10-01T18:43:35.594Z,925.39
2018-10-01T18:43:49.717Z,925.39
2018-10-01T18:44:01.737Z,925.49
2018-10-01T18:44:13.363Z,925.48
2018-10-01T18:44:26.465Z,925.44
2018-10-01T18:44:39.255Z,925.42
2018-10-01T18:44:51.176Z,925.42
2018-10-01T18:45:03.677Z,925.49
2018-10-01T18:45:16.929Z,925.51
2018-10-01T18:45:29.851Z,925.52
2018-10-01T18:45:42.603Z,925.54
2018-10-01T18:45:55.129Z,925.51
2018-10-01T18:46:07.776Z,925.51
2018-10-01T18:46:19.957Z,925.54
2018-10-01T18:46:32.575Z,925.52
2018-10-01T18:46:44.655Z,925.54
2018-10-01T18:46:57.763Z,925.5
2018-10-01T18:47:13.169Z,925.5
2018-10-01T18:47:26.634Z,925.49
2018-10-01T18:47:39.516Z,925.48
2018-10-01T18:47:52.564Z,925.56
2018-10-01T18:48:06.504Z,925.56
2018-10-01T18:48:19.777Z,925.58
2018-10-01T18:48:32.718Z,925.63
2018-10-01T18:48:45.244Z,925.62
2018-10-01T18:48:57.924Z,925.65
2018-10-01T18:49:10.155Z,925.61
2018-10-01T18:49:22.924Z,925.65
2018-10-01T18:49:35.683Z,925.64
2018-10-01T18:49:48.919Z,925.67
2018-10-01T18:50:02.051Z,925.66
2018-10-01T18:50:14.749Z,925.63
2018-10-01T18:50:28.101Z,925.64
2018-10-01T18:50:41.223Z,925.64
2018-10-01T18:50:54.345Z,925.66
2018-10-01T18:51:07.308Z,925.64
2018-10-01T18:51:20.160Z,925.66
2018-10-01T18:51:33.259Z,925.66
2018-10-01T18:51:46.328Z,925.65
2018-10-01T18:51:58.487Z,925.67
2018-10-01T18:52:11.678Z,925.71
2018-10-01T18:52:24.232Z,925.7
2018-10-01T18:52:36.816Z,925.7
2018-10-01T18:52:49.417Z,925.7
2018-10-01T18:53:02.438Z,925.69
2018-10-01T18:53:14.481Z,925.71
2018-10-01T18:53:27.005Z,925.74
2018-10-01T18:53:40.017Z,925.72
2018-10-01T18:53:52.793Z,925.73
2018-10-01T18:54:05.652Z,925.75
2018-10-01T18:54:19.125Z,925.8
2018-10-01T18:54:31.711Z,925.82
2018-10-01T18:54:44.163Z,925.79
2018-10-01T18:54:56.749Z,925.82
2018-10-01T18:55:09.229Z,925.85
2018-10-01T18:55:21.737Z,925.86
2018-10-01T18:55:34.269Z,925.84
2018-10-01T18:55:46.885Z,925.81
2018-10-01T18:55:59.010Z,925.86
2018-10-01T18:56:11.165Z,925.85
2018-10-01T18:56:24.250Z,925.76
2018-10-01T18:56:37.289Z,925.75
2018-10-01T18:56:49.286Z,925.71
2018-10-01T18:57:01.813Z,925.7
2018-10-01T18:57:13.842Z,925.66
2018-10-01T18:57:26.573Z,925.62
2018-10-01T18:57:39.509Z,925.58
2018-10-01T18:57:51.568Z,925.59
2018-10-01T18:58:04.088Z,925.54
2018-10-01T18:58:16.559Z,925.53
2018-10-01T18:58:29.116Z,925.53
2018-10-01T18:58:41.625Z,925.5
2018-10-01T18:58:54.623Z,925.47
2018-10-01T18:59:07.153Z,925.42
2018-10-01T18:59:20.110Z,925.45
2018-10-01T18:59:32.591Z,925.45
2018-10-01T18:59:45.704Z,925.44
2018-10-01T18:59:58.619Z,925.45
2018-10-01T19:00:12.002Z,925.43
2018-10-01T19:00:25.028Z,925.43
2018-10-01T19:00:37.175Z,925.46
2018-10-01T19:00:50.146Z,925.46
2018-10-01T19:01:02.801Z,925.49
2018-10-01T19:01:15.371Z,925.5
2018-10-01T19:01:28.390Z,925.51
2018-10-01T19:01:41.586Z,925.49
2018-10-01T19:01:54.621Z,925.49
2018-10-01T19:02:06.775Z,925.51
2018-10-01T19:02:19.721Z,925.54
2018-10-01T19:02:32.688Z,925.56
2018-10-01T19:02:45.718Z,925.55
2018-10-01T19:02:58.718Z,925.6
2018-10-01T19:03:11.755Z,925.67
2018-10-01T19:03:24.396Z,925.65
2018-10-01T19:03:36.170Z,925.69
2018-10-01T19:03:49.373Z,925.74
2018-10-01T19:04:01.937Z,925.75
2018-10-01T19:04:14.033Z,925.81
2018-10-01T19:04:26.599Z,925.87
2018-10-01T19:04:38.652Z,925.89
2018-10-01T19:04:51.123Z,925.9
2018-10-01T19:05:03.172Z,925.91
2018-10-01T19:05:15.236Z,925.95
2018-10-01T19:05:28.243Z,925.95
2018-10-01T19:05:40.870Z,926
2018-10-01T19:05:53.653Z,926.05
2018-10-01T19:06:06.632Z,926.07
2018-10-01T19:06:20.046Z,926.13
2018-10-01T19:06:32.717Z,926.19
2018-10-01T19:06:45.277Z,926.22
2018-10-01T19:06:57.783Z,926.27
2018-10-01T19:07:10.310Z,926.31
2018-10-01T19:07:23.278Z,926.31
2018-10-01T19:07:35.337Z,926.29
2018-10-01T19:07:48.323Z,926.26
2018-10-01T19:08:00.816Z,926.28
2018-10-01T19:08:13.440Z,926.24
2018-10-01T19:08:26.533Z,926.24
2018-10-01T19:08:39.076Z,926.19
2018-10-01T19:08:52.003Z,926.18
2018-10-01T19:09:04.503Z,926.13
2018-10-01T19:09:17.527Z,926.1
2018-10-01T19:09:30.490Z,925.98
2018-10-01T19:09:42.974Z,925.82
2018-10-01T19:09:55.919Z,925.72
2018-10-01T19:10:08.515Z,925.62
2018-10-01T19:10:21.162Z,925.61
2018-10-01T19:10:34.216Z,925.63
2018-10-01T19:10:45.749Z,925.66
2018-10-01T19:10:57.785Z,925.68
2018-10-01T19:11:10.756Z,925.7
2018-10-01T19:11:23.592Z,925.73
2018-10-01T19:11:36.681Z,925.75
2018-10-01T19:11:48.875Z,925.73
2018-10-01T19:12:02.388Z,925.68
2018-10-01T19:12:14.058Z,925.69
2018-10-01T19:12:25.954Z,925.67
2018-10-01T19:12:38.495Z,925.68
2018-10-01T19:12:51.090Z,925.68
2018-10-01T19:13:04.054Z,925.68
2018-10-01T19:13:16.534Z,925.65
2018-10-01T19:13:29.070Z,925.65
2018-10-01T19:13:41.080Z,925.62
2018-10-01T19:13:54.069Z,925.6
2018-10-01T19:14:06.586Z,925.59
2018-10-01T19:14:19.044Z,925.55
2018-10-01T19:14:31.124Z,925.48
2018-10-01T19:14:44.234Z,925.52
2018-10-01T19:14:57.834Z,925.49
2018-10-01T19:15:10.710Z,925.48
2018-10-01T19:15:23.708Z,925.46
2018-10-01T19:15:36.454Z,925.41
2018-10-01T19:15:48.509Z,925.41
2018-10-01T19:16:01.040Z,925.33
2018-10-01T19:16:13.538Z,925.37
2018-10-01T19:16:26.532Z,925.32
2018-10-01T19:16:37.630Z,925.29
2018-10-01T19:16:50.357Z,925.29
2018-10-01T19:17:03.458Z,925.3
2018-10-01T19:17:15.991Z,925.34
2018-10-01T19:17:27.611Z,925.33
2018-10-01T19:17:39.656Z,925.33
2018-10-01T19:17:52.506Z,925.34
2018-10-01T19:18:04.696Z,925.33
2018-10-01T19:18:17.634Z,925.36
2018-10-01T19:18:30.257Z,925.35
2018-10-01T19:18:42.775Z,925.31
2018-10-01T19:18:54.870Z,925.29
2018-10-01T19:19:07.876Z,925.33
2018-10-01T19:19:20.438Z,925.3
2018-10-01T19:19:32.891Z,925.28
2018-10-01T19:19:45.926Z,925.27
2018-10-01T19:19:58.027Z,925.27
2018-10-01T19:20:11.037Z,925.28
2018-10-01T19:20:23.543Z,925.26
2018-10-01T19:20:35.629Z,925.27
2018-10-01T19:20:48.314Z,925.28
2018-10-01T19:21:00.925Z,925.28
2018-10-01T19:21:14.173Z,925.28
2018-10-01T19:21:27.957Z,925.25
2018-10-01T19:21:40.517Z,925.24
2018-10-01T19:21:52.601Z,925.24
2018-10-01T19:22:05.178Z,925.23
2018-10-01T19:22:18.166Z,925.25
2018-10-01T19:22:30.217Z,925.23
2018-10-01T19:22:43.219Z,925.2
2018-10-01T19:22:56.171Z,925.23
2018-10-01T19:23:09.235Z,925.2
2018-10-01T19:23:21.333Z,925.19
2018-10-01T19:23:33.951Z,925.23
2018-10-01T19:23:46.179Z,925.22
2018-10-01T19:23:59.976Z,925.23
2018-10-01T19:24:12.790Z,925.23
2018-10-01T19:24:25.842Z,925.2
2018-10-01T19:24:37.374Z,925.17
2018-10-01T19:24:50.380Z,925.19
2018-10-01T19:25:02.947Z,925.16
2018-10-01T19:25:15.530Z,925.13
2018-10-01T19:25:28.087Z,925.11
2018-10-01T19:25:40.157Z,925.15
2018-10-01T19:25:53.335Z,925.2
2018-10-01T19:26:06.333Z,925.23
2018-10-01T19:26:19.445Z,925.22
2018-10-01T19:26:32.169Z,925.26
2018-10-01T19:26:44.308Z,925.23
2018-10-01T19:26:57.786Z,925.28
2018-10-01T19:27:11.275Z,925.25
2018-10-01T19:27:24.191Z,925.28
2018-10-01T19:27:37.242Z,925.3
2018-10-01T19:27:50.314Z,925.27
2018-10-01T19:28:03.339Z,925.26
2018-10-01T19:28:15.889Z,925.3
2018-10-01T19:28:28.445Z,925.3
2018-10-01T19:28:41.435Z,925.29
2018-10-01T19:28:54.405Z,925.32
2018-10-01T19:29:06.514Z,925.29
2018-10-01T19:29:19.519Z,925.26
2018-10-01T19:29:32.077Z,925.23
2018-10-01T19:29:44.734Z,925.23
2018-10-01T19:29:58.214Z,925.21
2018-10-01T19:30:11.239Z,925.24
2018-10-01T19:30:24.827Z,925.26
2018-10-01T19:30:36.494Z,925.28
2018-10-01T19:30:49.476Z,925.25
2018-10-01T19:31:01.501Z,925.23
2018-10-01T19:31:14.076Z,925.23
2018-10-01T19:31:27.320Z,925.19
2018-10-01T19:31:39.321Z,925.18
2018-10-01T19:31:52.459Z,925.18
2018-10-01T19:32:05.525Z,925.21
2018-10-01T19:32:18.516Z,925.18
2018-10-01T19:32:31.514Z,925.18
2018-10-01T19:32:44.057Z,925.18
2018-10-01T19:32:57.751Z,925.19
2018-10-01T19:33:10.199Z,925.17
2018-10-01T19:33:23.629Z,925.19
2018-10-01T19:33:36.971Z,925.18
2018-10-01T19:33:50.036Z,925.17
2018-10-01T19:34:02.592Z,925.17
2018-10-01T19:34:15.089Z,925.18
2018-10-01T19:34:27.577Z,925.2
2018-10-01T19:34:40.034Z,925.2
2018-10-01T19:34:53.184Z,925.18
2018-10-01T19:35:05.705Z,925.13
2018-10-01T19:35:18.685Z,925.17
2018-10-01T19:35:31.332Z,925.16
2018-10-01T19:35:44.884Z,925.2
2018-10-01T19:35:58.417Z,925.16
2018-10-01T19:36:12.181Z,925.17
2018-10-01T19:36:25.404Z,925.18
2018-10-01T19:36:37.973Z,925.14
2018-10-01T19:36:50.052Z,925.16
2018-10-01T19:37:02.603Z,925.14
2018-10-01T19:37:15.385Z,925.17
2018-10-01T19:37:28.935Z,925.17
2018-10-01T19:37:41.056Z,925.15
2018-10-01T19:37:53.538Z,925.15
2018-10-01T19:38:06.569Z,925.16
2018-10-01T19:38:19.609Z,925.14
2018-10-01T19:38:32.652Z,925.13
2018-10-01T19:38:45.786Z,925.14
2018-10-01T19:38:58.083Z,925.14
2018-10-01T19:39:11.065Z,925.14
2018-10-01T19:39:24.598Z,925.13
2018-10-01T19:39:37.195Z,925.15
2018-10-01T19:39:49.275Z,925.17
2018-10-01T19:40:02.252Z,925.19
2018-10-01T19:40:14.320Z,925.14
2018-10-01T19:40:27.343Z,925.19
2018-10-01T19:40:40.361Z,925.19
2018-10-01T19:40:53.340Z,925.22
2018-10-01T19:41:05.957Z,925.21
2018-10-01T19:41:19.329Z,925.21
2018-10-01T19:41:31.867Z,925.17
2018-10-01T19:41:45.350Z,925.18
2018-10-01T19:41:56.982Z,925.19
2018-10-01T19:42:10.062Z,925.21
2018-10-01T19:42:22.651Z,925.22
2018-10-01T19:42:35.132Z,925.22
2018-10-01T19:42:47.656Z,925.2
2018-10-01T19:43:00.668Z,925.19
2018-10-01T19:43:13.758Z,925.14
2018-10-01T19:43:27.167Z,925.15
2018-10-01T19:43:40.410Z,925.19
2018-10-01T19:43:53.356Z,925.15
2018-10-01T19:44:05.879Z,925.19
2018-10-01T19:44:18.399Z,925.19
2018-10-01T19:44:30.932Z,925.18
2018-10-01T19:44:43.965Z,925.24
2018-10-01T19:44:56.361Z,925.22
2018-10-01T19:45:09.616Z,925.22
2018-10-01T19:45:22.506Z,925.23
2018-10-01T19:45:35.603Z,925.24
2018-10-01T19:45:48.137Z,925.23
2018-10-01T19:46:01.128Z,925.24
2018-10-01T19:46:13.632Z,925.26
2018-10-01T19:46:26.727Z,925.3
2018-10-01T19:46:39.714Z,925.27
2018-10-01T19:46:52.415Z,925.28
2018-10-01T19:47:04.933Z,925.26
2018-10-01T19:47:18.193Z,925.23
2018-10-01T19:47:30.889Z,925.18
2018-10-01T19:47:43.014Z,925.19
2018-10-01T19:47:54.135Z,925.17
2018-10-01T19:48:07.147Z,925.17
2018-10-01T19:48:19.733Z,925.22
2018-10-01T19:48:32.703Z,925.16
2018-10-01T19:48:45.256Z,925.18
2018-10-01T19:48:58.238Z,925.19
2018-10-01T19:49:10.833Z,925.21
2018-10-01T19:49:22.909Z,925.2
2018-10-01T19:49:35.470Z,925.19
2018-10-01T19:49:48.001Z,925.22
2018-10-01T19:50:01.035Z,925.27
2018-10-01T19:50:13.149Z,925.32
2018-10-01T19:50:26.196Z,925.32
2018-10-01T19:50:39.186Z,925.36
2018-10-01T19:50:51.901Z,925.38
2018-10-01T19:51:05.420Z,925.35
2018-10-01T19:51:18.795Z,925.37
2018-10-01T19:51:32.205Z,925.37
2018-10-01T19:51:45.655Z,925.33
2018-10-01T19:51:58.176Z,925.33
2018-10-01T19:52:10.689Z,925.32
2018-10-01T19:52:23.696Z,925.31
2018-10-01T19:52:36.241Z,925.32
2018-10-01T19:52:48.407Z,925.35
2018-10-01T19:53:01.301Z,925.33
2018-10-01T19:53:12.964Z,925.29
2018-10-01T19:53:25.908Z,925.28
2018-10-01T19:53:38.993Z,925.29
2018-10-01T19:53:51.914Z,925.32
2018-10-01T19:54:04.687Z,925.34
2018-10-01T19:54:17.758Z,925.34
2018-10-01T19:54:30.772Z,925.35
2018-10-01T19:54:43.879Z,925.34
2018-10-01T19:54:56.470Z,925.36
2018-10-01T19:55:08.541Z,925.38
2018-10-01T19:55:20.644Z,925.4
2018-10-01T19:55:33.157Z,925.39
2018-10-01T19:55:45.725Z,925.38
2018-10-01T19:55:58.689Z,925.39
2018-10-01T19:56:11.745Z,925.41
2018-10-01T19:56:23.847Z,925.38
2018-10-01T19:56:36.831Z,925.4
2018-10-01T19:56:50.161Z,925.42
2018-10-01T19:57:03.206Z,925.42
2018-10-01T19:57:16.021Z,925.42
2018-10-01T19:57:29.632Z,925.38
2018-10-01T19:57:42.619Z,925.43
2018-10-01T19:57:55.097Z,925.45
2018-10-01T19:58:08.235Z,925.41
2018-10-01T19:58:21.339Z,925.42
2018-10-01T19:58:33.921Z,925.45
2018-10-01T19:58:47.005Z,925.49
2018-10-01T19:59:00.074Z,925.47
2018-10-01T19:59:13.642Z,925.46
2018-10-01T19:59:27.418Z,925.44
2018-10-01T19:59:40.536Z,925.43
2018-10-01T19:59:53.057Z,925.48
2018-10-01T20:00:05.719Z,925.51
2018-10-01T20:00:18.164Z,925.52
2018-10-01T20:00:30.885Z,925.52
2018-10-01T20:00:43.261Z,925.49
2018-10-01T20:00:56.122Z,925.45
2018-10-01T20:01:08.300Z,925.49
2018-10-01T20:01:21.360Z,925.49
2018-10-01T20:01:33.502Z,925.51
2018-10-01T20:01:46.113Z,925.47
2018-10-01T20:01:59.320Z,925.5
2018-10-01T20:02:12.051Z,925.49
2018-10-01T20:02:25.047Z,925.53
2018-10-01T20:02:37.613Z,925.54
2018-10-01T20:02:51.011Z,925.6
2018-10-01T20:03:04.628Z,925.6
2018-10-01T20:03:17.587Z,925.55
2018-10-01T20:03:30.172Z,925.5
2018-10-01T20:03:42.757Z,925.5
2018-10-01T20:03:55.305Z,925.54
2018-10-01T20:04:07.827Z,925.51
2018-10-01T20:04:20.410Z,925.54
2018-10-01T20:04:33.004Z,925.54
2018-10-01T20:04:46.169Z,925.5
2018-10-01T20:04:59.803Z,925.48
2018-10-01T20:05:12.104Z,925.47
2018-10-01T20:05:25.628Z,925.5
2018-10-01T20:05:37.711Z,925.5
2018-10-01T20:05:50.303Z,925.5
2018-10-01T20:06:02.336Z,925.48
2018-10-01T20:06:14.449Z,925.46
2018-10-01T20:06:26.601Z,925.49
2018-10-01T20:06:38.626Z,925.5
2018-10-01T20:06:50.692Z,925.5
2018-10-01T20:07:03.758Z,925.49
2018-10-01T20:07:16.708Z,925.54
2018-10-01T20:07:29.247Z,925.5
2018-10-01T20:07:42.247Z,925.54
2018-10-01T20:07:55.283Z,925.55
2018-10-01T20:08:07.866Z,925.54
2018-10-01T20:08:20.446Z,925.53
2018-10-01T20:08:32.045Z,925.51
2018-10-01T20:08:44.669Z,925.53
2018-10-01T20:08:57.552Z,925.56
2018-10-01T20:09:10.374Z,925.56
2018-10-01T20:09:22.819Z,925.55
2018-10-01T20:09:35.935Z,925.53
2018-10-01T20:09:48.981Z,925.54
2018-10-01T20:10:01.618Z,925.51
2018-10-01T20:10:15.131Z,925.51
2018-10-01T20:10:28.192Z,925.5
2018-10-01T20:10:41.249Z,925.52
2018-10-01T20:10:54.634Z,925.53
2018-10-01T20:11:07.421Z,925.54
2018-10-01T20:11:19.689Z,925.52
2018-10-01T20:11:33.006Z,925.55
2018-10-01T20:11:46.141Z,925.53
2018-10-01T20:11:59.188Z,925.52
2018-10-01T20:12:11.736Z,925.56
2018-10-01T20:12:24.415Z,925.53
2018-10-01T20:12:36.954Z,925.54
2018-10-01T20:12:49.030Z,925.55
2018-10-01T20:13:01.527Z,925.53
2018-10-01T20:13:14.621Z,925.53
2018-10-01T20:13:27.600Z,925.56
2018-10-01T20:13:40.204Z,925.54
2018-10-01T20:13:53.183Z,925.53
2018-10-01T20:14:05.735Z,925.52
2018-10-01T20:14:18.315Z,925.52
2018-10-01T20:14:29.909Z,925.5
2018-10-01T20:14:42.487Z,925.48
2018-10-01T20:14:55.258Z,925.51
2018-10-01T20:15:08.716Z,925.49
2018-10-01T20:15:22.145Z,925.5
2018-10-01T20:15:34.828Z,925.49
2018-10-01T20:15:48.005Z,925.51
2018-10-01T20:16:00.819Z,925.53
2018-10-01T20:16:12.898Z,925.53
2018-10-01T20:16:25.370Z,925.53
2018-10-01T20:16:37.894Z,925.52
2018-10-01T20:16:51.218Z,925.56
2018-10-01T20:17:04.219Z,925.56
2018-10-01T20:17:17.865Z,925.55
2018-10-01T20:17:31.157Z,925.56
2018-10-01T20:17:44.698Z,925.55
2018-10-01T20:17:58.031Z,925.53
2018-10-01T20:18:11.491Z,925.54
2018-10-01T20:18:23.907Z,925.56
2018-10-01T20:18:37.335Z,925.56
2018-10-01T20:18:50.405Z,925.58
2018-10-01T20:19:03.278Z,925.55
2018-10-01T20:19:15.695Z,925.58
2018-10-01T20:19:28.573Z,925.57
2018-10-01T20:19:41.602Z,925.53
2018-10-01T20:19:54.990Z,925.56
2018-10-01T20:20:06.893Z,925.56
2018-10-01T20:20:20.017Z,925.56
2018-10-01T20:20:33.518Z,925.57
2018-10-01T20:20:46.888Z,925.58
2018-10-01T20:21:00.781Z,925.57
2018-10-01T20:21:13.997Z,925.6
2018-10-01T20:21:27.683Z,925.57
2018-10-01T20:21:39.774Z,925.56
2018-10-01T20:21:52.650Z,925.54
2018-10-01T20:22:05.986Z,925.57
2018-10-01T20:22:19.734Z,925.57
2018-10-01T20:22:33.536Z,925.54
2018-10-01T20:22:46.859Z,925.58
2018-10-01T20:22:59.899Z,925.6
2018-10-01T20:23:13.317Z,925.59
2018-10-01T20:23:26.237Z,925.55
2018-10-01T20:23:39.433Z,925.57
2018-10-01T20:23:52.294Z,925.56
2018-10-01T20:24:05.640Z,925.56
2018-10-01T20:24:19.518Z,925.57
2018-10-01T20:24:32.458Z,925.6
2018-10-01T20:24:46.355Z,925.6
2018-10-01T20:24:59.771Z,925.6
2018-10-01T20:25:12.690Z,925.58
2018-10-01T20:25:25.747Z,925.56
2018-10-01T20:25:38.284Z,925.58
2018-10-01T20:25:51.763Z,925.57
2018-10-01T20:26:05.959Z,925.58
2018-10-01T20:26:18.741Z,925.6
2018-10-01T20:26:31.891Z,925.54
2018-10-01T20:26:45.896Z,925.56
2018-10-01T20:26:58.993Z,925.55
2018-10-01T20:27:12.206Z,925.56
2018-10-01T20:27:26.338Z,925.5
2018-10-01T20:27:38.906Z,925.54
2018-10-01T20:27:52.606Z,925.51
2018-10-01T20:28:05.737Z,925.53
2018-10-01T20:28:19.750Z,925.55
2018-10-01T20:28:35.078Z,925.52
2018-10-01T20:28:48.681Z,925.51
2018-10-01T20:29:04.424Z,925.51
2018-10-01T20:29:20.078Z,925.52
2018-10-01T20:29:32.815Z,925.5
2018-10-01T20:29:45.576Z,925.54
2018-10-01T20:29:59.494Z,925.54
2018-10-01T20:30:12.928Z,925.54
2018-10-01T20:30:26.963Z,925.5
2018-10-01T20:30:39.545Z,925.52
2018-10-01T20:30:53.319Z,925.54
2018-10-01T20:31:06.215Z,925.55
2018-10-01T20:31:19.529Z,925.6
2018-10-01T20:31:32.944Z,925.55
2018-10-01T20:31:46.489Z,925.56
2018-10-01T20:31:59.910Z,925.55
2018-10-01T20:32:13.300Z,925.56
2018-10-01T20:32:26.784Z,925.56
2018-10-01T20:32:39.308Z,925.58
2018-10-01T20:32:52.153Z,925.56
2018-10-01T20:33:05.495Z,925.59
2018-10-01T20:33:18.952Z,925.57
2018-10-01T20:33:32.545Z,925.56
2018-10-01T20:33:45.876Z,925.62
2018-10-01T20:33:59.267Z,925.57
2018-10-01T20:34:12.282Z,925.56
2018-10-01T20:34:25.052Z,925.58
2018-10-01T20:34:38.499Z,925.61
2018-10-01T20:34:51.937Z,925.59
2018-10-01T20:35:06.173Z,925.57
2018-10-01T20:35:20.414Z,925.57
2018-10-01T20:35:34.338Z,925.56
2018-10-01T20:35:47.856Z,925.57
2018-10-01T20:36:02.280Z,925.56
2018-10-01T20:36:16.282Z,925.59
2018-10-01T20:36:29.558Z,925.58
2018-10-01T20:36:43.252Z,925.57
2018-10-01T20:36:55.754Z,925.57
2018-10-01T20:37:08.629Z,925.58
2018-10-01T20:37:21.014Z,925.59
2018-10-01T20:37:33.897Z,925.56
2018-10-01T20:37:47.114Z,925.59
2018-10-01T20:38:00.912Z,925.6
2018-10-01T20:38:14.108Z,925.55
2018-10-01T20:38:28.065Z,925.56
2018-10-01T20:38:41.479Z,925.58
2018-10-01T20:38:54.588Z,925.59
2018-10-01T20:39:08.036Z,925.59
2018-10-01T20:39:20.586Z,925.57
2018-10-01T20:39:33.874Z,925.57
2018-10-01T20:39:46.892Z,925.59
2018-10-01T20:40:00.255Z,925.61
2018-10-01T20:40:13.285Z,925.59
2018-10-01T20:40:25.704Z,925.54
2018-10-01T20:40:38.477Z,925.57
2018-10-01T20:40:51.713Z,925.54
2018-10-01T20:41:05.733Z,925.55
2018-10-01T20:41:18.919Z,925.56
2018-10-01T20:41:32.643Z,925.56
2018-10-01T20:41:46.091Z,925.6
2018-10-01T20:42:00.307Z,925.59
2018-10-01T20:42:13.430Z,925.63
2018-10-01T20:42:27.245Z,925.6
2018-10-01T20:42:40.333Z,925.58
2018-10-01T20:42:53.721Z,925.61
2018-10-01T20:43:06.572Z,925.6
2018-10-01T20:43:19.067Z,925.62
2018-10-01T20:43:31.080Z,925.62
2018-10-01T20:43:44.538Z,925.61
2018-10-01T20:43:57.909Z,925.63
2018-10-01T20:44:11.805Z,925.65
2018-10-01T20:44:25.217Z,925.6
2018-10-01T20:44:38.659Z,925.61
2018-10-01T20:44:52.055Z,925.63
2018-10-01T20:45:05.064Z,925.63
2018-10-01T20:45:17.909Z,925.65
2018-10-01T20:45:30.698Z,925.63
2018-10-01T20:45:43.716Z,925.64
2018-10-01T20:45:57.578Z,925.6
2018-10-01T20:46:10.687Z,925.64
2018-10-01T20:46:23.508Z,925.63
2018-10-01T20:46:36.920Z,925.64
2018-10-01T20:46:50.873Z,925.6
2018-10-01T20:47:04.639Z,925.64
2018-10-01T20:47:17.312Z,925.62
2018-10-01T20:47:31.171Z,925.64
2018-10-01T20:47:43.625Z,925.61
2018-10-01T20:47:56.180Z,925.64
2018-10-01T20:48:09.876Z,925.61
2018-10-01T20:48:22.605Z,925.63
2018-10-01T20:48:35.731Z,925.63
2018-10-01T20:48:48.928Z,925.63
2018-10-01T20:49:01.798Z,925.63
2018-10-01T20:49:14.261Z,925.63
2018-10-01T20:49:27.760Z,925.62
2018-10-01T20:49:40.709Z,925.63
2018-10-01T20:49:54.145Z,925.63
2018-10-01T20:50:08.153Z,925.62
2018-10-01T20:50:20.776Z,925.64
2018-10-01T20:50:34.747Z,925.61
2018-10-01T20:50:47.198Z,925.62
2018-10-01T20:51:00.714Z,925.64
2018-10-01T20:51:12.986Z,925.64
2018-10-01T20:51:26.385Z,925.64
2018-10-01T20:51:38.861Z,925.62
2018-10-01T20:51:52.122Z,925.63
2018-10-01T20:52:04.946Z,925.65
2018-10-01T20:52:18.691Z,925.64
2018-10-01T20:52:33.010Z,925.62
2018-10-01T20:52:46.580Z,925.63
2018-10-01T20:53:00.300Z,925.61
2018-10-01T20:53:14.602Z,925.62
2018-10-01T20:53:28.924Z,925.63
2018-10-01T20:53:42.301Z,925.64
2018-10-01T20:53:56.042Z,925.62
2018-10-01T20:54:09.033Z,925.67
2018-10-01T20:54:22.304Z,925.63
2018-10-01T20:54:35.868Z,925.64
2018-10-01T20:54:49.333Z,925.63
2018-10-01T20:55:02.158Z,925.65
2018-10-01T20:55:15.265Z,925.63
2018-10-01T20:55:28.729Z,925.67
2018-10-01T20:55:42.077Z,925.64
2018-10-01T20:55:55.507Z,925.69
2018-10-01T20:56:09.376Z,925.67
2018-10-01T20:56:23.354Z,925.67
2018-10-01T20:56:36.727Z,925.68
2018-10-01T20:56:49.657Z,925.7
2018-10-01T20:57:02.440Z,925.71
2018-10-01T20:57:15.993Z,925.7
2018-10-01T20:57:29.399Z,925.7
2018-10-01T20:57:41.261Z,925.67
2018-10-01T20:57:54.206Z,925.71
2018-10-01T20:58:06.591Z,925.67
2018-10-01T20:58:19.169Z,925.71
2018-10-01T20:58:32.224Z,925.7
2018-10-01T20:58:45.499Z,925.73
2018-10-01T20:58:58.636Z,925.72
2018-10-01T20:59:11.947Z,925.72
2018-10-01T20:59:25.342Z,925.71
2018-10-01T20:59:38.809Z,925.69
2018-10-01T20:59:51.830Z,925.67
2018-10-01T21:00:05.145Z,925.69
2018-10-01T21:00:17.474Z,925.68
2018-10-01T21:00:30.416Z,925.71
2018-10-01T21:00:43.766Z,925.71
2018-10-01T21:00:56.823Z,925.71
2018-10-01T21:01:10.178Z,925.72
2018-10-01T21:01:23.203Z,925.68
2018-10-01T21:01:36.189Z,925.69
2018-10-01T21:01:49.048Z,925.73
2018-10-01T21:02:02.129Z,925.72
2018-10-01T21:02:15.082Z,925.73
2018-10-01T21:02:28.829Z,925.74
2018-10-01T21:02:42.158Z,925.7
2018-10-01T21:02:54.989Z,925.7
2018-10-01T21:03:08.334Z,925.69
2018-10-01T21:03:21.122Z,925.7
2018-10-01T21:03:34.026Z,925.69
2018-10-01T21:03:47.348Z,925.69
2018-10-01T21:04:00.389Z,925.72
2018-10-01T21:04:13.304Z,925.7
2018-10-01T21:04:26.685Z,925.7
2018-10-01T21:04:39.012Z,925.69
2018-10-01T21:04:52.203Z,925.68
2018-10-01T21:05:05.145Z,925.7
2018-10-01T21:05:17.640Z,925.69
2018-10-01T21:05:30.926Z,925.68
2018-10-01T21:05:44.324Z,925.68
2018-10-01T21:05:56.714Z,925.72
2018-10-01T21:06:09.102Z,925.73
2018-10-01T21:06:22.408Z,925.71
2018-10-01T21:06:35.704Z,925.73
2018-10-01T21:06:49.140Z,925.71
2018-10-01T21:07:02.180Z,925.74
2018-10-01T21:07:15.595Z,925.72
2018-10-01T21:07:28.949Z,925.74
2018-10-01T21:07:42.464Z,925.75
2018-10-01T21:07:56.013Z,925.75
2018-10-01T21:08:09.093Z,925.77
2018-10-01T21:08:22.706Z,925.74
2018-10-01T21:08:35.997Z,925.7
2018-10-01T21:08:48.719Z,925.76
2018-10-01T21:09:01.119Z,925.79
2018-10-01T21:09:13.890Z,925.78
2018-10-01T21:09:27.188Z,925.78
2018-10-01T21:09:40.616Z,925.75
2018-10-01T21:09:53.710Z,925.78
2018-10-01T21:10:06.495Z,925.76
2018-10-01T21:10:19.936Z,925.77
2018-10-01T21:10:32.473Z,925.76
2018-10-01T21:10:46.022Z,925.8
2018-10-01T21:10:59.560Z,925.8
2018-10-01T21:11:12.127Z,925.82
2018-10-01T21:11:25.114Z,925.81
2018-10-01T21:11:37.410Z,925.84
2018-10-01T21:11:50.452Z,925.81
2018-10-01T21:12:03.922Z,925.83
2018-10-01T21:12:17.576Z,925.81
2018-10-01T21:12:31.012Z,925.82
2018-10-01T21:12:44.234Z,925.82
2018-10-01T21:12:57.425Z,925.83
2018-10-01T21:13:10.668Z,925.83
2018-10-01T21:13:24.204Z,925.81
2018-10-01T21:13:37.667Z,925.83
2018-10-01T21:13:50.750Z,925.81
2018-10-01T21:14:04.020Z,925.81
2018-10-01T21:14:16.941Z,925.8
2018-10-01T21:14:29.027Z,925.79
2018-10-01T21:14:42.442Z,925.82
2018-10-01T21:14:55.051Z,925.79
2018-10-01T21:15:08.474Z,925.83
2018-10-01T21:15:21.909Z,925.78
2018-10-01T21:15:34.361Z,925.79
2018-10-01T21:15:47.866Z,925.79
2018-10-01T21:16:00.691Z,925.81
2018-10-01T21:16:13.139Z,925.81
2018-10-01T21:16:26.416Z,925.79
2018-10-01T21:16:39.794Z,925.81
2018-10-01T21:16:53.054Z,925.8
2018-10-01T21:17:05.979Z,925.82
2018-10-01T21:17:18.804Z,925.8
2018-10-01T21:17:31.724Z,925.82
2018-10-01T21:17:44.488Z,925.81
2018-10-01T21:17:57.416Z,925.8
2018-10-01T21:18:10.321Z,925.82
2018-10-01T21:18:23.149Z,925.84
2018-10-01T21:18:36.090Z,925.82
2018-10-01T21:18:49.443Z,925.82
2018-10-01T21:19:02.842Z,925.84
2018-10-01T21:19:15.794Z,925.82
2018-10-01T21:19:28.762Z,925.8
2018-10-01T21:19:42.214Z,925.82
2018-10-01T21:19:55.706Z,925.84
2018-10-01T21:20:08.687Z,925.83
2018-10-01T21:20:22.161Z,925.86
2018-10-01T21:20:35.681Z,925.87
2018-10-01T21:20:49.005Z,925.87
2018-10-01T21:21:02.503Z,925.83
2018-10-01T21:21:14.892Z,925.85
2018-10-01T21:21:28.370Z,925.87
2018-10-01T21:21:41.639Z,925.84
2018-10-01T21:21:54.697Z,925.8
2018-10-01T21:22:08.024Z,925.86
2018-10-01T21:22:21.418Z,925.83
2018-10-01T21:22:34.681Z,925.84
2018-10-01T21:22:47.644Z,925.83
2018-10-01T21:23:00.992Z,925.83
2018-10-01T21:23:13.988Z,925.79